East Galesburg, IL (61430)

3:50 AM CST on February 06, 2016 (GMT -0600)
Willow Lane Area | | Change Station
CLOSE
Current Station
Personal Weather Station
Location: Galesburg, IL
Elevation: 781 ft
Nearby Weather Stations

Elev 781 ft 40.96 °N, 90.35 °W | Updated 7 minutes ago

Overcast
Overcast
27.6 °F
Feels Like 28 °F
N
0.0
Wind Variable Wind from SSW
Gusts 3.0 mph

Today
High -- | Low -- °F
--% Chance of Precip.
Yesterday
High -- | Low -- °F
Precip. -- in
Pressure 30.27 in
Visibility 10.0 miles
Clouds Overcast 3100 ft
Windchill 28 °F
Dew Point 24 °F
Humidity 85%
Rainfall 0.00 in
Snow Depth Not available.
7:06 AM 5:24 PM
Waning Crescent, 6% visible
METAR KGBG 060935Z AUTO 17004KT 10SM OVC031 M03/M04 A3027 RMK AO2 T10261045
Pressure 30.27 in
Visibility 10.0 miles
Clouds Overcast 3100 ft
Windchill 28 °F
Dew Point 24 °F
Humidity 85%
Rainfall 0.00 in
Snow Depth Not available.
7:06 AM 5:24 PM
Waning Crescent, 6% visible
METAR KGBG 060935Z AUTO 17004KT 10SM OVC031 M03/M04 A3027 RMK AO2 T10261045

10-Day Weather Forecast

Almanac

Astronomy

Feb. 06, 2016 Rise Set
Actual Time
Civil Twilight
Nautical Twilight
Astronomical Twilight
Moon
Length of Visible Light
Length of Day
Tomorrow will be .
, % of the Moon is Illuminated

Today's Extremes

State Highs State Lows

Community

WunderPhotos

Upload Photos

1,890,933 photos uploaded!

WunderBlog® & News

Nearby

Air Quality

  Air Quality AQ Index Pollutant
Not available.

Snow Depth

Station Depth Elevation

Earthquake Activity

City Distance Mag. Time & Date
Minimum magnitude displayed is 2.5.

Coastal Water Temperatures

Place Temperature

Stations

Nearby Weather Stations

Station Location Temp. Windchill Dew Point Humidity Wind Precip. Elev Updated Type
                   

Watches & Warnings

There are currently no watches in effect.